sensor_id;sensor_type;location;lat;lon;timestamp;pressure;altitude;pressure_sealevel;temperature;humidity
69971;BME280;57301;50.328;8.542;2023-06-14T00:02:11;98246.75;;;10.85;78.69
69971;BME280;57301;50.328;8.542;2023-06-14T00:04:37;98247.19;;;10.64;79.03
69971;BME280;57301;50.328;8.542;2023-06-14T00:07:05;98250.34;;;10.67;78.28
69971;BME280;57301;50.328;8.542;2023-06-14T00:09:34;98250.34;;;10.59;79.27
69971;BME280;57301;50.328;8.542;2023-06-14T00:12:01;98253.63;;;10.53;78.92
69971;BME280;57301;50.328;8.542;2023-06-14T00:14:28;98251.78;;;10.45;79.76
69971;BME280;57301;50.328;8.542;2023-06-14T00:16:57;98256.75;;;10.40;80.39
69971;BME280;57301;50.328;8.542;2023-06-14T00:19:26;98250.22;;;10.35;80.70
69971;BME280;57301;50.328;8.542;2023-06-14T00:21:53;98253.28;;;10.22;80.74
69971;BME280;57301;50.328;8.542;2023-06-14T00:24:19;98254.16;;;10.31;80.84
69971;BME280;57301;50.328;8.542;2023-06-14T00:26:46;98249.34;;;10.26;80.58
69971;BME280;57301;50.328;8.542;2023-06-14T00:29:13;98252.44;;;10.21;81.47
69971;BME280;57301;50.328;8.542;2023-06-14T00:31:39;98249.78;;;10.21;80.99
69971;BME280;57301;50.328;8.542;2023-06-14T00:34:06;98247.38;;;10.36;80.95
69971;BME280;57301;50.328;8.542;2023-06-14T00:36:33;98253.22;;;10.32;81.05
69971;BME280;57301;50.328;8.542;2023-06-14T00:38:59;98251.31;;;10.24;80.71
69971;BME280;57301;50.328;8.542;2023-06-14T00:41:25;98244.72;;;10.36;81.00
69971;BME280;57301;50.328;8.542;2023-06-14T00:43:53;98240.28;;;10.19;81.31
69971;BME280;57301;50.328;8.542;2023-06-14T00:46:22;98249.44;;;9.99;81.86
69971;BME280;57301;50.328;8.542;2023-06-14T00:48:49;98246.56;;;9.92;82.14
69971;BME280;57301;50.328;8.542;2023-06-14T00:51:16;98243.13;;;10.00;82.27
69971;BME280;57301;50.328;8.542;2023-06-14T00:53:44;98252.84;;;9.83;82.48
69971;BME280;57301;50.328;8.542;2023-06-14T00:56:16;98248.38;;;9.65;83.34
69971;BME280;57301;50.328;8.542;2023-06-14T00:58:43;98253.59;;;9.75;82.52
69971;BME280;57301;50.328;8.542;2023-06-14T01:01:09;98247.34;;;9.84;82.90
69971;BME280;57301;50.328;8.542;2023-06-14T01:03:36;98255.03;;;9.87;83.52
69971;BME280;57301;50.328;8.542;2023-06-14T01:06:20;98251.09;;;9.74;82.73
69971;BME280;57301;50.328;8.542;2023-06-14T01:09:22;98247.56;;;9.91;83.01
69971;BME280;57301;50.328;8.542;2023-06-14T01:12:01;98258.88;;;9.67;83.32
69971;BME280;57301;50.328;8.542;2023-06-14T01:14:31;98253.63;;;9.57;83.83
69971;BME280;57301;50.328;8.542;2023-06-14T01:16:59;98256.81;;;9.43;83.97
69971;BME280;57301;50.328;8.542;2023-06-14T01:19:27;98258.25;;;9.55;83.28
69971;BME280;57301;50.328;8.542;2023-06-14T01:21:57;98250.22;;;9.47;83.25
69971;BME280;57301;50.328;8.542;2023-06-14T01:24:27;98252.19;;;9.45;83.55
69971;BME280;57301;50.328;8.542;2023-06-14T01:26:59;98255.53;;;9.47;83.87
69971;BME280;57301;50.328;8.542;2023-06-14T01:29:26;98253.25;;;9.70;84.33
69971;BME280;57301;50.328;8.542;2023-06-14T01:31:54;98259.19;;;9.64;84.01
69971;BME280;57301;50.328;8.542;2023-06-14T01:34:21;98259.88;;;9.66;83.82
69971;BME280;57301;50.328;8.542;2023-06-14T01:36:48;98255.09;;;9.52;83.52
69971;BME280;57301;50.328;8.542;2023-06-14T01:39:17;98248.75;;;9.71;83.61
69971;BME280;57301;50.328;8.542;2023-06-14T01:41:44;98258.28;;;9.37;83.61
69971;BME280;57301;50.328;8.542;2023-06-14T01:44:12;98255.59;;;9.20;84.31
69971;BME280;57301;50.328;8.542;2023-06-14T01:46:40;98254.97;;;9.08;84.90
69971;BME280;57301;50.328;8.542;2023-06-14T01:49:07;98248.47;;;9.02;84.71
69971;BME280;57301;50.328;8.542;2023-06-14T01:51:34;98259.19;;;8.83;86.41
69971;BME280;57301;50.328;8.542;2023-06-14T01:54:03;98256.53;;;8.83;87.20
69971;BME280;57301;50.328;8.542;2023-06-14T01:56:30;98249.25;;;8.85;86.44
69971;BME280;57301;50.328;8.542;2023-06-14T01:58:57;98258.19;;;8.66;87.54
69971;BME280;57301;50.328;8.542;2023-06-14T02:01:23;98261.16;;;8.81;85.97
69971;BME280;57301;50.328;8.542;2023-06-14T02:03:50;98256.44;;;8.75;86.59
69971;BME280;57301;50.328;8.542;2023-06-14T02:06:18;98257.47;;;8.64;87.05
69971;BME280;57301;50.328;8.542;2023-06-14T02:08:44;98262.78;;;8.64;86.54
69971;BME280;57301;50.328;8.542;2023-06-14T02:11:11;98259.28;;;8.64;86.79
69971;BME280;57301;50.328;8.542;2023-06-14T02:13:40;98265.16;;;8.67;86.40
69971;BME280;57301;50.328;8.542;2023-06-14T02:16:06;98261.50;;;8.68;86.63
69971;BME280;57301;50.328;8.542;2023-06-14T02:18:33;98259.59;;;8.60;87.30
69971;BME280;57301;50.328;8.542;2023-06-14T02:21:01;98256.22;;;8.58;87.16
69971;BME280;57301;50.328;8.542;2023-06-14T02:23:27;98261.19;;;8.53;87.01
69971;BME280;57301;50.328;8.542;2023-06-14T02:25:54;98255.56;;;8.47;87.35
69971;BME280;57301;50.328;8.542;2023-06-14T02:28:20;98256.31;;;8.39;87.43
69971;BME280;57301;50.328;8.542;2023-06-14T02:30:47;98262.03;;;8.34;87.42
69971;BME280;57301;50.328;8.542;2023-06-14T02:33:13;98263.31;;;8.30;88.22
69971;BME280;57301;50.328;8.542;2023-06-14T02:35:40;98269.59;;;8.39;87.84
69971;BME280;57301;50.328;8.542;2023-06-14T02:38:07;98265.44;;;8.37;87.90
69971;BME280;57301;50.328;8.542;2023-06-14T02:40:33;98277.28;;;8.42;88.15
69971;BME280;57301;50.328;8.542;2023-06-14T02:43:00;98278.66;;;8.46;87.63
69971;BME280;57301;50.328;8.542;2023-06-14T02:45:28;98280.06;;;8.41;88.38
69971;BME280;57301;50.328;8.542;2023-06-14T02:47:54;98277.72;;;8.28;89.04
69971;BME280;57301;50.328;8.542;2023-06-14T02:50:22;98281.94;;;8.21;90.25
69971;BME280;57301;50.328;8.542;2023-06-14T02:52:50;98283.38;;;8.05;90.32
69971;BME280;57301;50.328;8.542;2023-06-14T02:55:16;98282.50;;;8.15;89.68
69971;BME280;57301;50.328;8.542;2023-06-14T02:57:43;98288.50;;;8.26;89.58
69971;BME280;57301;50.328;8.542;2023-06-14T03:00:10;98295.22;;;8.21;89.24
69971;BME280;57301;50.328;8.542;2023-06-14T03:02:40;98288.38;;;8.18;88.69
69971;BME280;57301;50.328;8.542;2023-06-14T03:05:09;98302.81;;;8.06;89.27
69971;BME280;57301;50.328;8.542;2023-06-14T03:07:36;98300.00;;;7.98;89.38
69971;BME280;57301;50.328;8.542;2023-06-14T03:10:10;98301.69;;;7.89;88.50
69971;BME280;57301;50.328;8.542;2023-06-14T03:12:36;98303.38;;;7.90;89.51
69971;BME280;57301;50.328;8.542;2023-06-14T03:15:03;98301.69;;;7.89;90.58
69971;BME280;57301;50.328;8.542;2023-06-14T03:17:30;98296.94;;;8.59;90.18
69971;BME280;57301;50.328;8.542;2023-06-14T03:20:00;98298.41;;;9.08;88.11
69971;BME280;57301;50.328;8.542;2023-06-14T03:22:26;98309.56;;;8.84;86.37
69971;BME280;57301;50.328;8.542;2023-06-14T03:25:03;98313.78;;;8.77;86.81
69971;BME280;57301;50.328;8.542;2023-06-14T03:27:31;98313.28;;;8.64;86.65
69971;BME280;57301;50.328;8.542;2023-06-14T03:29:58;98311.22;;;8.58;86.55
69971;BME280;57301;50.328;8.542;2023-06-14T03:32:24;98310.59;;;8.37;86.78
69971;BME280;57301;50.328;8.542;2023-06-14T03:34:51;98318.28;;;8.30;87.00
69971;BME280;57301;50.328;8.542;2023-06-14T03:37:18;98328.22;;;8.38;87.03
69971;BME280;57301;50.328;8.542;2023-06-14T03:39:45;98328.06;;;8.29;87.62
69971;BME280;57301;50.328;8.542;2023-06-14T03:42:13;98330.72;;;8.20;87.65
69971;BME280;57301;50.328;8.542;2023-06-14T03:44:40;98328.44;;;8.34;87.06
69971;BME280;57301;50.328;8.542;2023-06-14T03:47:07;98333.22;;;8.41;87.30
69971;BME280;57301;50.328;8.542;2023-06-14T03:49:34;98337.44;;;8.43;86.94
69971;BME280;57301;50.328;8.542;2023-06-14T03:52:01;98339.41;;;8.41;86.65
69971;BME280;57301;50.328;8.542;2023-06-14T03:54:31;98350.69;;;8.33;87.55
69971;BME280;57301;50.328;8.542;2023-06-14T03:57:01;98345.25;;;8.35;87.31
69971;BME280;57301;50.328;8.542;2023-06-14T03:59:28;98350.53;;;8.92;85.40
69971;BME280;57301;50.328;8.542;2023-06-14T04:01:54;98347.91;;;9.37;82.52
69971;BME280;57301;50.328;8.542;2023-06-14T04:04:21;98339.72;;;9.21;82.75
69971;BME280;57301;50.328;8.542;2023-06-14T04:06:47;98345.41;;;8.80;84.79
69971;BME280;57301;50.328;8.542;2023-06-14T04:09:15;98347.97;;;8.72;86.23
69971;BME280;57301;50.328;8.542;2023-06-14T04:11:41;98350.47;;;8.74;86.41
69971;BME280;57301;50.328;8.542;2023-06-14T04:14:07;98354.22;;;8.81;86.93
69971;BME280;57301;50.328;8.542;2023-06-14T04:16:34;98350.63;;;8.72;87.49
69971;BME280;57301;50.328;8.542;2023-06-14T04:19:01;98350.03;;;8.78;86.67
69971;BME280;57301;50.328;8.542;2023-06-14T04:21:28;98347.75;;;8.83;87.49
69971;BME280;57301;50.328;8.542;2023-06-14T04:23:55;98354.88;;;8.93;87.02
69971;BME280;57301;50.328;8.542;2023-06-14T04:26:22;98356.03;;;9.08;86.37
69971;BME280;57301;50.328;8.542;2023-06-14T04:28:52;98358.50;;;9.19;85.41
69971;BME280;57301;50.328;8.542;2023-06-14T04:31:19;98365.16;;;9.33;85.15
69971;BME280;57301;50.328;8.542;2023-06-14T04:33:51;98364.72;;;9.37;84.86
69971;BME280;57301;50.328;8.542;2023-06-14T04:36:19;98364.28;;;9.42;85.39
69971;BME280;57301;50.328;8.542;2023-06-14T04:38:46;98373.25;;;9.41;85.57
69971;BME280;57301;50.328;8.542;2023-06-14T04:41:18;98365.91;;;9.53;83.97
69971;BME280;57301;50.328;8.542;2023-06-14T04:43:49;98367.75;;;9.70;83.93
69971;BME280;57301;50.328;8.542;2023-06-14T04:46:16;98366.75;;;9.71;84.71
69971;BME280;57301;50.328;8.542;2023-06-14T04:48:43;98372.97;;;9.80;85.11
69971;BME280;57301;50.328;8.542;2023-06-14T04:51:10;98372.91;;;9.89;84.47
69971;BME280;57301;50.328;8.542;2023-06-14T04:53:37;98369.16;;;10.00;84.82
69971;BME280;57301;50.328;8.542;2023-06-14T04:56:04;98378.47;;;10.14;84.73
69971;BME280;57301;50.328;8.542;2023-06-14T04:58:30;98377.25;;;10.26;83.87
69971;BME280;57301;50.328;8.542;2023-06-14T05:00:58;98377.94;;;10.54;83.67
69971;BME280;57301;50.328;8.542;2023-06-14T05:03:29;98375.75;;;10.75;83.74
69971;BME280;57301;50.328;8.542;2023-06-14T05:05:57;98374.88;;;10.93;82.20
69971;BME280;57301;50.328;8.542;2023-06-14T05:08:24;98375.44;;;11.13;81.99
69971;BME280;57301;50.328;8.542;2023-06-14T05:10:50;98384.84;;;11.25;81.43
69971;BME280;57301;50.328;8.542;2023-06-14T05:13:18;98381.75;;;11.46;80.95
69971;BME280;57301;50.328;8.542;2023-06-14T05:15:44;98377.34;;;11.79;80.34
69971;BME280;57301;50.328;8.542;2023-06-14T05:18:11;98378.06;;;12.14;79.93
69971;BME280;57301;50.328;8.542;2023-06-14T05:20:40;98379.06;;;12.37;78.96
69971;BME280;57301;50.328;8.542;2023-06-14T05:23:09;98374.31;;;12.80;77.75
69971;BME280;57301;50.328;8.542;2023-06-14T05:25:43;98375.22;;;13.11;77.47
69971;BME280;57301;50.328;8.542;2023-06-14T05:28:10;98380.47;;;13.52;74.64
69971;BME280;57301;50.328;8.542;2023-06-14T05:30:38;98377.59;;;13.85;71.44
69971;BME280;57301;50.328;8.542;2023-06-14T05:33:05;98378.66;;;14.44;69.71
69971;BME280;57301;50.328;8.542;2023-06-14T05:35:32;98375.03;;;14.90;66.77
69971;BME280;57301;50.328;8.542;2023-06-14T05:37:59;98386.94;;;15.10;65.68
69971;BME280;57301;50.328;8.542;2023-06-14T05:40:25;98387.63;;;15.33;63.48
69971;BME280;57301;50.328;8.542;2023-06-14T05:42:52;98380.78;;;15.97;62.22
69971;BME280;57301;50.328;8.542;2023-06-14T05:45:21;98380.91;;;16.10;60.65
69971;BME280;57301;50.328;8.542;2023-06-14T05:47:47;98390.19;;;16.29;60.02
69971;BME280;57301;50.328;8.542;2023-06-14T05:50:14;98392.75;;;16.58;58.94
69971;BME280;57301;50.328;8.542;2023-06-14T05:52:41;98401.44;;;17.10;57.88
69971;BME280;57301;50.328;8.542;2023-06-14T05:55:08;98392.16;;;17.19;55.51
69971;BME280;57301;50.328;8.542;2023-06-14T05:57:34;98396.47;;;17.55;55.13
69971;BME280;57301;50.328;8.542;2023-06-14T06:00:02;98394.69;;;17.68;55.43
69971;BME280;57301;50.328;8.542;2023-06-14T06:02:36;98395.28;;;17.64;55.79
69971;BME280;57301;50.328;8.542;2023-06-14T06:05:03;98395.25;;;17.98;53.75
69971;BME280;57301;50.328;8.542;2023-06-14T06:07:29;98395.66;;;18.02;52.91
69971;BME280;57301;50.328;8.542;2023-06-14T06:09:56;98396.19;;;18.85;52.08
69971;BME280;57301;50.328;8.542;2023-06-14T06:12:22;98398.88;;;18.78;51.18
69971;BME280;57301;50.328;8.542;2023-06-14T06:14:49;98405.03;;;19.25;51.53
69971;BME280;57301;50.328;8.542;2023-06-14T06:17:15;98403.25;;;19.77;49.86
69971;BME280;57301;50.328;8.542;2023-06-14T06:19:42;98395.81;;;20.04;49.17
69971;BME280;57301;50.328;8.542;2023-06-14T06:22:09;98395.19;;;20.09;48.38
69971;BME280;57301;50.328;8.542;2023-06-14T06:24:35;98402.06;;;20.05;47.83
69971;BME280;57301;50.328;8.542;2023-06-14T06:27:02;98404.59;;;20.38;47.51
69971;BME280;57301;50.328;8.542;2023-06-14T06:29:31;98394.94;;;20.10;47.55
69971;BME280;57301;50.328;8.542;2023-06-14T06:31:58;98403.13;;;20.92;45.93
69971;BME280;57301;50.328;8.542;2023-06-14T06:34:25;98409.31;;;21.24;45.14
69971;BME280;57301;50.328;8.542;2023-06-14T06:36:52;98411.44;;;20.72;45.29
69971;BME280;57301;50.328;8.542;2023-06-14T06:39:18;98405.47;;;20.88;45.22
69971;BME280;57301;50.328;8.542;2023-06-14T06:41:45;98414.75;;;19.53;46.56
69971;BME280;57301;50.328;8.542;2023-06-14T06:44:11;98408.19;;;20.25;46.74
69971;BME280;57301;50.328;8.542;2023-06-14T06:46:39;98414.34;;;20.07;46.94
69971;BME280;57301;50.328;8.542;2023-06-14T06:49:07;98413.00;;;20.23;47.25
69971;BME280;57301;50.328;8.542;2023-06-14T06:51:35;98409.72;;;20.78;45.94
69971;BME280;57301;50.328;8.542;2023-06-14T06:54:03;98414.00;;;21.10;45.16
69971;BME280;57301;50.328;8.542;2023-06-14T06:56:29;98407.06;;;20.71;45.40
69971;BME280;57301;50.328;8.542;2023-06-14T06:58:57;98408.41;;;20.87;45.99
69971;BME280;57301;50.328;8.542;2023-06-14T07:01:24;98416.19;;;20.52;46.74
69971;BME280;57301;50.328;8.542;2023-06-14T07:03:51;98414.84;;;19.91;48.07
69971;BME280;57301;50.328;8.542;2023-06-14T07:06:18;98411.94;;;20.62;46.48
69971;BME280;57301;50.328;8.542;2023-06-14T07:08:45;98415.28;;;21.88;44.21
69971;BME280;57301;50.328;8.542;2023-06-14T07:11:14;98415.56;;;22.16;43.48
69971;BME280;57301;50.328;8.542;2023-06-14T07:13:41;98422.25;;;21.95;43.58
69971;BME280;57301;50.328;8.542;2023-06-14T07:16:07;98419.59;;;21.59;44.47
69971;BME280;57301;50.328;8.542;2023-06-14T07:18:34;98430.13;;;21.24;46.01
69971;BME280;57301;50.328;8.542;2023-06-14T07:21:01;98426.38;;;21.86;44.19
69971;BME280;57301;50.328;8.542;2023-06-14T07:23:28;98427.94;;;21.39;43.60
69971;BME280;57301;50.328;8.542;2023-06-14T07:25:55;98428.94;;;21.19;44.28
69971;BME280;57301;50.328;8.542;2023-06-14T07:28:21;98432.69;;;21.43;43.40
69971;BME280;57301;50.328;8.542;2023-06-14T07:30:48;98434.38;;;22.30;42.16
69971;BME280;57301;50.328;8.542;2023-06-14T07:33:15;98429.00;;;22.11;42.21
69971;BME280;57301;50.328;8.542;2023-06-14T07:35:42;98430.00;;;21.80;42.23
69971;BME280;57301;50.328;8.542;2023-06-14T07:38:09;98427.47;;;21.42;43.43
69971;BME280;57301;50.328;8.542;2023-06-14T07:40:36;98431.91;;;21.18;44.35
69971;BME280;57301;50.328;8.542;2023-06-14T07:43:02;98433.09;;;20.72;44.46
69971;BME280;57301;50.328;8.542;2023-06-14T07:45:30;98428.47;;;21.23;43.76
69971;BME280;57301;50.328;8.542;2023-06-14T07:47:56;98436.84;;;21.64;42.97
69971;BME280;57301;50.328;8.542;2023-06-14T07:50:23;98429.53;;;21.83;42.18
69971;BME280;57301;50.328;8.542;2023-06-14T07:52:50;98429.16;;;21.80;42.06
69971;BME280;57301;50.328;8.542;2023-06-14T07:55:16;98427.72;;;21.59;43.45
69971;BME280;57301;50.328;8.542;2023-06-14T07:57:44;98423.22;;;21.28;43.06
69971;BME280;57301;50.328;8.542;2023-06-14T08:00:11;98421.00;;;20.75;43.50
69971;BME280;57301;50.328;8.542;2023-06-14T08:02:42;98424.44;;;22.05;44.15
69971;BME280;57301;50.328;8.542;2023-06-14T08:05:12;98437.50;;;21.96;41.53
69971;BME280;57301;50.328;8.542;2023-06-14T08:07:40;98427.25;;;21.98;42.31
69971;BME280;57301;50.328;8.542;2023-06-14T08:10:07;98437.88;;;22.00;40.97
69971;BME280;57301;50.328;8.542;2023-06-14T08:12:33;98443.22;;;22.07;40.15
69971;BME280;57301;50.328;8.542;2023-06-14T08:15:01;98434.88;;;21.90;41.23
69971;BME280;57301;50.328;8.542;2023-06-14T08:17:34;98435.25;;;21.75;40.74
69971;BME280;57301;50.328;8.542;2023-06-14T08:20:02;98440.50;;;22.07;40.67
69971;BME280;57301;50.328;8.542;2023-06-14T08:22:30;98440.13;;;22.03;39.74
69971;BME280;57301;50.328;8.542;2023-06-14T08:25:00;98439.72;;;21.88;39.13
69971;BME280;57301;50.328;8.542;2023-06-14T08:27:27;98439.84;;;22.11;38.79
69971;BME280;57301;50.328;8.542;2023-06-14T08:29:56;98442.88;;;21.66;40.32
69971;BME280;57301;50.328;8.542;2023-06-14T08:32:24;98447.63;;;21.53;40.00
69971;BME280;57301;50.328;8.542;2023-06-14T08:34:51;98444.47;;;21.74;40.85
69971;BME280;57301;50.328;8.542;2023-06-14T08:37:31;98453.88;;;21.71;41.48
69971;BME280;57301;50.328;8.542;2023-06-14T08:39:57;98445.59;;;22.33;41.77
69971;BME280;57301;50.328;8.542;2023-06-14T08:42:24;98444.00;;;21.40;40.82
69971;BME280;57301;50.328;8.542;2023-06-14T08:44:58;98441.84;;;21.24;43.04
69971;BME280;57301;50.328;8.542;2023-06-14T08:47:26;98439.22;;;21.91;39.30
69971;BME280;57301;50.328;8.542;2023-06-14T08:49:56;98433.69;;;21.86;40.62
69971;BME280;57301;50.328;8.542;2023-06-14T08:52:27;98436.97;;;22.06;40.00
69971;BME280;57301;50.328;8.542;2023-06-14T08:55:00;98440.00;;;21.98;40.56
69971;BME280;57301;50.328;8.542;2023-06-14T08:57:29;98429.00;;;22.11;42.14
69971;BME280;57301;50.328;8.542;2023-06-14T08:59:57;98434.69;;;22.03;40.54
69971;BME280;57301;50.328;8.542;2023-06-14T09:02:24;98439.47;;;21.34;40.92
69971;BME280;57301;50.328;8.542;2023-06-14T09:04:51;98435.84;;;21.40;41.26
69971;BME280;57301;50.328;8.542;2023-06-14T09:07:18;98429.59;;;22.13;38.26
69971;BME280;57301;50.328;8.542;2023-06-14T09:09:45;98438.16;;;22.29;39.74
69971;BME280;57301;50.328;8.542;2023-06-14T09:12:31;98441.00;;;22.34;38.36
69971;BME280;57301;50.328;8.542;2023-06-14T09:14:59;98442.72;;;22.16;40.77
69971;BME280;57301;50.328;8.542;2023-06-14T09:17:26;98445.41;;;22.46;39.23
69971;BME280;57301;50.328;8.542;2023-06-14T09:19:55;98451.00;;;22.03;40.26
69971;BME280;57301;50.328;8.542;2023-06-14T09:22:22;98443.91;;;22.20;39.63
69971;BME280;57301;50.328;8.542;2023-06-14T09:24:48;98451.03;;;22.63;39.69
69971;BME280;57301;50.328;8.542;2023-06-14T09:27:15;98458.78;;;21.81;41.64
69971;BME280;57301;50.328;8.542;2023-06-14T09:29:42;98458.63;;;21.76;40.92
69971;BME280;57301;50.328;8.542;2023-06-14T09:32:09;98456.06;;;22.18;40.89
69971;BME280;57301;50.328;8.542;2023-06-14T09:34:36;98457.53;;;22.32;39.48
69971;BME280;57301;50.328;8.542;2023-06-14T09:37:02;98464.72;;;21.71;41.66
69971;BME280;57301;50.328;8.542;2023-06-14T09:39:29;98462.56;;;22.17;40.80
69971;BME280;57301;50.328;8.542;2023-06-14T09:41:56;98457.97;;;23.01;38.86
69971;BME280;57301;50.328;8.542;2023-06-14T09:44:25;98463.66;;;22.58;38.79
69971;BME280;57301;50.328;8.542;2023-06-14T09:46:55;98456.09;;;22.60;39.35
69971;BME280;57301;50.328;8.542;2023-06-14T09:49:22;98456.09;;;22.90;39.08
69971;BME280;57301;50.328;8.542;2023-06-14T09:51:50;98465.06;;;22.48;40.62
69971;BME280;57301;50.328;8.542;2023-06-14T09:54:22;98463.97;;;22.19;39.35
69971;BME280;57301;50.328;8.542;2023-06-14T09:56:51;98465.28;;;22.17;40.57
69971;BME280;57301;50.328;8.542;2023-06-14T09:59:26;98465.59;;;22.39;39.19
69971;BME280;57301;50.328;8.542;2023-06-14T10:01:58;98453.72;;;22.63;37.47
69971;BME280;57301;50.328;8.542;2023-06-14T10:04:27;98458.75;;;22.36;39.19
69971;BME280;57301;50.328;8.542;2023-06-14T10:06:56;98452.59;;;22.83;37.97
69971;BME280;57301;50.328;8.542;2023-06-14T10:09:23;98455.56;;;22.81;39.02
69971;BME280;57301;50.328;8.542;2023-06-14T10:11:50;98461.66;;;21.68;39.34
69971;BME280;57301;50.328;8.542;2023-06-14T10:14:17;98463.94;;;22.38;39.60
69971;BME280;57301;50.328;8.542;2023-06-14T10:16:56;98468.53;;;22.37;37.91
69971;BME280;57301;50.328;8.542;2023-06-14T10:19:36;98449.47;;;22.97;38.12
69971;BME280;57301;50.328;8.542;2023-06-14T10:22:10;98439.44;;;23.45;37.63
69971;BME280;57301;50.328;8.542;2023-06-14T10:24:42;98444.97;;;23.50;38.48
69971;BME280;57301;50.328;8.542;2023-06-14T10:27:09;98436.72;;;24.08;36.15
69971;BME280;57301;50.328;8.542;2023-06-14T10:32:22;98452.53;;;23.59;36.09
69971;BME280;57301;50.328;8.542;2023-06-14T10:35:00;98455.88;;;23.62;36.72
69971;BME280;57301;50.328;8.542;2023-06-14T10:37:27;98455.16;;;22.96;37.91
69971;BME280;57301;50.328;8.542;2023-06-14T10:39:54;98449.78;;;22.77;36.99
69971;BME280;57301;50.328;8.542;2023-06-14T10:42:20;98446.03;;;22.90;37.64
69971;BME280;57301;50.328;8.542;2023-06-14T10:44:50;98458.16;;;22.46;38.93
69971;BME280;57301;50.328;8.542;2023-06-14T10:49:51;98452.66;;;22.22;38.97
69971;BME280;57301;50.328;8.542;2023-06-14T10:52:24;98447.44;;;22.21;38.40
69971;BME280;57301;50.328;8.542;2023-06-14T10:57:55;98440.69;;;22.95;38.77
69971;BME280;57301;50.328;8.542;2023-06-14T11:00:31;98443.06;;;23.74;37.14
69971;BME280;57301;50.328;8.542;2023-06-14T11:05:49;98442.72;;;23.12;39.25
69971;BME280;57301;50.328;8.542;2023-06-14T11:08:31;98453.50;;;22.05;37.82
69971;BME280;57301;50.328;8.542;2023-06-14T11:11:07;98440.59;;;23.25;36.34
69971;BME280;57301;50.328;8.542;2023-06-14T11:13:34;98446.16;;;22.23;37.26
69971;BME280;57301;50.328;8.542;2023-06-14T11:16:10;98443.00;;;21.90;39.16
69971;BME280;57301;50.328;8.542;2023-06-14T11:18:36;98441.75;;;22.52;38.11
69971;BME280;57301;50.328;8.542;2023-06-14T11:21:03;98445.00;;;22.31;39.39
69971;BME280;57301;50.328;8.542;2023-06-14T11:23:30;98445.44;;;23.00;38.20
69971;BME280;57301;50.328;8.542;2023-06-14T11:25:56;98454.19;;;23.60;37.06
69971;BME280;57301;50.328;8.542;2023-06-14T11:28:35;98445.97;;;24.07;36.45
69971;BME280;57301;50.328;8.542;2023-06-14T11:31:03;98448.72;;;23.96;38.46
69971;BME280;57301;50.328;8.542;2023-06-14T11:33:30;98446.91;;;22.72;37.85
69971;BME280;57301;50.328;8.542;2023-06-14T11:35:57;98451.59;;;22.53;37.62
69971;BME280;57301;50.328;8.542;2023-06-14T11:38:25;98451.09;;;22.87;38.41
69971;BME280;57301;50.328;8.542;2023-06-14T11:40:52;98454.31;;;22.05;38.09
69971;BME280;57301;50.328;8.542;2023-06-14T11:43:19;98452.75;;;22.88;40.05
69971;BME280;57301;50.328;8.542;2023-06-14T11:45:48;98441.66;;;23.36;37.18
69971;BME280;57301;50.328;8.542;2023-06-14T11:48:37;98446.59;;;23.86;36.89
69971;BME280;57301;50.328;8.542;2023-06-14T11:51:04;98451.97;;;23.46;38.35
69971;BME280;57301;50.328;8.542;2023-06-14T11:53:31;98441.91;;;23.35;37.19
69971;BME280;57301;50.328;8.542;2023-06-14T11:55:58;98449.78;;;22.77;38.83
69971;BME280;57301;50.328;8.542;2023-06-14T11:58:25;98450.00;;;22.46;39.22
69971;BME280;57301;50.328;8.542;2023-06-14T12:00:53;98448.19;;;22.70;39.65
69971;BME280;57301;50.328;8.542;2023-06-14T12:03:23;98456.22;;;23.42;39.26
69971;BME280;57301;50.328;8.542;2023-06-14T12:06:03;98446.59;;;24.55;35.37
69971;BME280;57301;50.328;8.542;2023-06-14T12:08:37;98446.56;;;24.83;34.95
69971;BME280;57301;50.328;8.542;2023-06-14T12:11:15;98436.41;;;23.81;35.88
69971;BME280;57301;50.328;8.542;2023-06-14T12:13:43;98443.31;;;23.60;36.94
69971;BME280;57301;50.328;8.542;2023-06-14T12:16:11;98444.63;;;23.58;35.99
69971;BME280;57301;50.328;8.542;2023-06-14T12:18:39;98442.75;;;23.35;36.05
69971;BME280;57301;50.328;8.542;2023-06-14T12:21:08;98443.53;;;22.89;37.51
69971;BME280;57301;50.328;8.542;2023-06-14T12:23:46;98438.53;;;23.91;36.70
69971;BME280;57301;50.328;8.542;2023-06-14T12:26:18;98433.31;;;24.01;37.02
69971;BME280;57301;50.328;8.542;2023-06-14T12:28:46;98425.47;;;24.05;35.21
69971;BME280;57301;50.328;8.542;2023-06-14T12:31:15;98432.03;;;23.80;35.88
69971;BME280;57301;50.328;8.542;2023-06-14T12:33:42;98446.50;;;23.81;36.19
69971;BME280;57301;50.328;8.542;2023-06-14T12:36:10;98437.28;;;23.12;36.69
69971;BME280;57301;50.328;8.542;2023-06-14T12:38:37;98443.31;;;23.37;38.67
69971;BME280;57301;50.328;8.542;2023-06-14T12:41:04;98437.63;;;23.50;38.40
69971;BME280;57301;50.328;8.542;2023-06-14T12:43:31;98442.88;;;24.44;36.61
69971;BME280;57301;50.328;8.542;2023-06-14T12:45:58;98427.31;;;25.62;33.92
69971;BME280;57301;50.328;8.542;2023-06-14T12:48:26;98440.28;;;25.00;35.50
69971;BME280;57301;50.328;8.542;2023-06-14T12:50:57;98438.00;;;25.08;35.84
69971;BME280;57301;50.328;8.542;2023-06-14T12:53:25;98429.19;;;24.73;35.40
69971;BME280;57301;50.328;8.542;2023-06-14T12:55:51;98436.81;;;24.42;35.29
69971;BME280;57301;50.328;8.542;2023-06-14T12:58:48;98435.00;;;23.79;36.42
69971;BME280;57301;50.328;8.542;2023-06-14T13:01:15;98441.63;;;22.89;36.82
69971;BME280;57301;50.328;8.542;2023-06-14T13:03:41;98445.50;;;23.99;36.28
69971;BME280;57301;50.328;8.542;2023-06-14T13:06:08;98446.69;;;25.61;34.10
69971;BME280;57301;50.328;8.542;2023-06-14T13:08:35;98447.72;;;24.87;35.14
69971;BME280;57301;50.328;8.542;2023-06-14T13:11:01;98438.81;;;24.47;36.37
69971;BME280;57301;50.328;8.542;2023-06-14T13:13:28;98444.66;;;23.98;35.97
69971;BME280;57301;50.328;8.542;2023-06-14T13:15:54;98458.91;;;24.00;37.02
69971;BME280;57301;50.328;8.542;2023-06-14T13:18:21;98453.97;;;23.74;37.40
69971;BME280;57301;50.328;8.542;2023-06-14T13:20:47;98457.03;;;23.54;38.76